Time;durP1;ratioP1;P1;durP2;ratioP2;P2;SDS_P1;SDS_P2;PMS_P1;PMS_P2;Temp;Humidity;BMP_temperature;BMP_pressure;BME280_temperature;BME280_humidity;BME280_pressure;Samples;Min_cycle;Max_cycle;Signal;HPM_P1;HPM_P2
2022/05/17 00:01:45;;;;;;;3.65;2.35;;;16.90;99.90;;;;;;4964741;28;20045;-83
2022/05/17 00:04:11;;;;;;;5.63;2.38;;;16.90;99.90;;;;;;4989375;28;20110;-83
2022/05/17 00:06:36;;;;;;;2.85;2.20;;;17.00;99.90;;;;;;4947574;28;20026;-83
2022/05/17 00:09:02;;;;;;;3.45;2.53;;;17.00;99.90;;;;;;4993865;28;20035;-84
2022/05/17 00:11:28;;;;;;;5.00;2.40;;;16.90;99.90;;;;;;4974023;28;20088;-85
2022/05/17 00:13:54;;;;;;;4.07;2.33;;;16.90;99.90;;;;;;4998307;28;20038;-85
2022/05/17 00:16:20;;;;;;;3.97;2.70;;;16.90;99.90;;;;;;4959725;28;20041;-83
2022/05/17 00:18:46;;;;;;;2.35;2.15;;;16.80;99.90;;;;;;4965917;28;20447;-86
2022/05/17 00:21:12;;;;;;;5.10;2.70;;;16.80;99.90;;;;;;5000555;28;20026;-85
2022/05/17 00:23:38;;;;;;;3.15;2.65;;;16.80;99.90;;;;;;4991628;28;20053;-83
2022/05/17 00:26:07;;;;;;;4.50;2.60;;;16.80;99.90;;;;;;4962901;28;20163;-85
2022/05/17 00:28:35;;;;;;;5.45;2.83;;;16.80;99.90;;;;;;5000163;28;20113;-85
2022/05/17 00:31:01;;;;;;;3.10;2.50;;;16.80;99.90;;;;;;4986185;28;20066;-84
2022/05/17 00:33:27;;;;;;;3.35;2.50;;;16.70;99.90;;;;;;4990492;28;20093;-84
2022/05/17 00:35:53;;;;;;;2.35;2.15;;;16.80;99.90;;;;;;4977191;28;20031;-84
2022/05/17 00:38:19;;;;;;;3.78;2.83;;;16.70;99.90;;;;;;4989084;28;20038;-84
2022/05/17 00:40:45;;;;;;;5.57;3.00;;;16.60;99.90;;;;;;4990355;28;20034;-84
2022/05/17 00:43:20;;;;;;;3.00;2.65;;;16.60;99.90;;;;;;4989581;28;20477;-84
2022/05/17 00:45:49;;;;;;;4.28;3.50;;;16.50;99.90;;;;;;5001384;28;20500;-84
2022/05/17 00:48:18;;;;;;;5.18;3.33;;;16.50;99.90;;;;;;4981713;28;20037;-84
2022/05/17 00:50:47;;;;;;;4.50;2.88;;;16.40;99.90;;;;;;4963885;28;20026;-84
2022/05/17 00:53:27;;;;;;;5.40;3.20;;;16.40;99.90;;;;;;4989665;28;20715;-85
2022/05/17 00:56:02;;;;;;;3.10;2.80;;;16.30;99.90;;;;;;4979750;28;20027;-83
2022/05/17 00:58:30;;;;;;;;;;;16.20;99.90;;;;;;4956070;28;20042;-84
2022/05/17 01:01:07;;;;;;;4.90;3.22;;;16.20;99.90;;;;;;4967488;28;19922;-84
2022/05/17 01:03:47;;;;;;;3.65;3.05;;;16.10;99.90;;;;;;4988422;28;20460;-84
2022/05/17 01:06:16;;;;;;;6.03;3.25;;;16.10;99.90;;;;;;4991212;28;20027;-84
2022/05/17 01:08:42;;;;;;;4.68;3.10;;;16.10;99.90;;;;;;4992202;28;20038;-84
2022/05/17 01:11:07;;;;;;;5.70;2.97;;;16.10;99.90;;;;;;5003343;28;20041;-83
2022/05/17 01:16:18;;;;;;;3.72;3.35;;;16.10;99.90;;;;;;4989197;28;20041;-84
2022/05/17 01:18:44;;;;;;;5.45;3.40;;;16.10;99.90;;;;;;4996595;28;20109;-85
2022/05/17 01:21:11;;;;;;;3.80;3.20;;;16.10;99.90;;;;;;4971075;28;20058;-84
2022/05/17 01:23:38;;;;;;;6.10;3.50;;;16.10;99.90;;;;;;5000426;28;20025;-84
2022/05/17 01:26:06;;;;;;;3.67;3.33;;;16.10;99.90;;;;;;4977219;28;20031;-84
2022/05/17 01:28:36;;;;;;;5.68;3.95;;;16.00;99.90;;;;;;4989174;28;20496;-84
2022/05/17 01:31:05;;;;;;;3.40;3.03;;;16.00;99.90;;;;;;5002522;28;20065;-84
2022/05/17 01:33:34;;;;;;;6.88;3.90;;;16.00;99.90;;;;;;5001943;28;20061;-84
2022/05/17 01:36:01;;;;;;;5.10;3.85;;;16.00;99.90;;;;;;4987016;28;20030;-83
2022/05/17 01:38:28;;;;;;;7.00;3.83;;;16.00;99.90;;;;;;4998565;28;20045;-84
2022/05/17 01:40:54;;;;;;;5.18;3.22;;;16.00;99.90;;;;;;4984662;28;20034;-84
2022/05/17 01:43:20;;;;;;;5.97;3.72;;;16.00;99.90;;;;;;4992395;28;20057;-84
2022/05/17 01:45:46;;;;;;;6.80;3.78;;;16.00;99.90;;;;;;4993990;28;20053;-83
2022/05/17 01:48:12;;;;;;;4.45;3.65;;;16.00;99.90;;;;;;4996411;28;20561;-84
2022/05/17 01:50:38;;;;;;;5.30;3.28;;;16.00;99.90;;;;;;4986771;28;20073;-84
2022/05/17 01:53:04;;;;;;;4.97;4.35;;;16.00;99.90;;;;;;4976059;28;20504;-84
2022/05/17 01:55:30;;;;;;;6.07;4.15;;;16.00;99.90;;;;;;4977463;28;20501;-83
2022/05/17 01:57:56;;;;;;;6.43;3.85;;;16.00;99.90;;;;;;4961026;28;20030;-84
2022/05/17 02:00:23;;;;;;;4.68;3.70;;;16.00;99.90;;;;;;4957977;28;20042;-84
2022/05/17 02:02:52;;;;;;;4.32;3.92;;;16.00;99.90;;;;;;4989188;28;20034;-84
2022/05/17 02:05:23;;;;;;;5.63;4.20;;;16.00;99.90;;;;;;4990030;28;20022;-84
2022/05/17 02:07:50;;;;;;;7.32;3.85;;;16.00;99.90;;;;;;4988190;28;20046;-84
2022/05/17 02:10:25;;;;;;;6.32;4.38;;;16.00;99.90;;;;;;4971578;28;20037;-84
2022/05/17 02:12:56;;;;;;;6.93;4.13;;;16.00;99.90;;;;;;4939120;28;20046;-83
2022/05/17 02:15:22;;;;;;;4.60;4.03;;;16.00;99.90;;;;;;4951739;28;20038;-84
2022/05/17 02:17:49;;;;;;;5.82;3.95;;;16.00;99.90;;;;;;4978319;28;20076;-84
2022/05/17 02:20:15;;;;;;;3.58;3.15;;;16.00;99.90;;;;;;4979901;28;20042;-84
2022/05/17 02:22:41;;;;;;;4.82;3.58;;;15.90;99.90;;;;;;4988916;28;20031;-83
2022/05/17 02:25:08;;;;;;;7.03;3.97;;;15.90;99.90;;;;;;4972617;28;20564;-84
2022/05/17 02:27:34;;;;;;;6.45;3.63;;;15.90;99.90;;;;;;4988259;28;20030;-84
2022/05/17 02:30:00;;;;;;;5.53;3.55;;;15.90;99.90;;;;;;4961423;28;20077;-83
2022/05/17 02:32:26;;;;;;;6.55;4.20;;;15.90;99.90;;;;;;4965131;28;20069;-84
2022/05/17 02:34:52;;;;;;;4.45;4.05;;;15.90;99.90;;;;;;4939779;28;20046;-83
2022/05/17 02:37:17;;;;;;;4.60;3.50;;;15.90;99.90;;;;;;5001187;28;20030;-83
2022/05/17 02:39:45;;;;;;;5.95;3.78;;;15.90;99.90;;;;;;4987591;28;20536;-84
2022/05/17 02:42:11;;;;;;;4.70;3.83;;;15.90;99.90;;;;;;4995171;28;20129;-84
2022/05/17 02:44:37;;;;;;;6.53;3.45;;;15.90;99.90;;;;;;4991574;28;20026;-83
2022/05/17 02:47:04;;;;;;;6.45;3.85;;;15.90;99.90;;;;;;4979429;28;20121;-84
2022/05/17 02:49:31;;;;;;;3.95;3.45;;;15.80;99.90;;;;;;4993723;28;20061;-83
2022/05/17 02:52:01;;;;;;;4.35;3.63;;;15.80;99.90;;;;;;4971150;28;20033;-84
2022/05/17 02:54:27;;;;;;;7.20;3.97;;;15.80;99.90;;;;;;4971209;28;20589;-84
2022/05/17 02:56:53;;;;;;;4.70;4.22;;;15.80;99.90;;;;;;4948527;28;20054;-83
2022/05/17 02:59:19;;;;;;;4.10;3.75;;;15.80;99.90;;;;;;5002790;28;20032;-84
2022/05/17 03:01:46;;;;;;;6.85;4.60;;;15.80;99.90;;;;;;4953296;28;20055;-83
2022/05/17 03:04:13;;;;;;;4.88;3.97;;;15.80;99.90;;;;;;4945657;28;20184;-83
2022/05/17 03:06:43;;;;;;;4.35;3.90;;;15.80;99.90;;;;;;4983549;28;20369;-83
2022/05/17 03:09:10;;;;;;;3.90;3.50;;;15.80;99.90;;;;;;4999341;28;20371;-84
2022/05/17 03:11:38;;;;;;;4.60;3.92;;;15.80;99.90;;;;;;4952413;28;20037;-83
2022/05/17 03:14:05;;;;;;;3.88;3.58;;;15.80;99.90;;;;;;4988179;28;20023;-83
2022/05/17 03:16:32;;;;;;;5.03;4.32;;;15.70;99.90;;;;;;4976408;28;20628;-83
2022/05/17 03:18:59;;;;;;;5.95;3.88;;;15.80;99.90;;;;;;4966313;28;20485;-84
2022/05/17 03:21:25;;;;;;;4.68;3.83;;;15.80;99.90;;;;;;4981635;28;20073;-84
2022/05/17 03:23:50;;;;;;;8.13;3.88;;;15.70;99.90;;;;;;4972739;28;20045;-84
2022/05/17 03:26:16;;;;;;;5.15;3.83;;;15.70;99.90;;;;;;4961323;28;20527;-84
2022/05/17 03:28:42;;;;;;;6.10;4.00;;;15.70;99.90;;;;;;4991079;28;20030;-84
2022/05/17 03:31:09;;;;;;;4.18;3.70;;;15.70;99.90;;;;;;4974472;28;20109;-84
2022/05/17 03:33:36;;;;;;;5.43;3.92;;;15.70;99.90;;;;;;4974937;28;20084;-83
2022/05/17 03:36:02;;;;;;;5.05;3.67;;;15.60;99.90;;;;;;4959286;28;20049;-84
2022/05/17 03:38:29;;;;;;;4.90;4.13;;;15.60;99.90;;;;;;4973881;28;20587;-84
2022/05/17 03:40:54;;;;;;;4.50;3.85;;;15.60;99.90;;;;;;4959685;28;20034;-84
2022/05/17 03:43:21;;;;;;;6.60;4.18;;;15.60;99.90;;;;;;4964888;28;20523;-83
2022/05/17 03:45:47;;;;;;;4.85;3.53;;;15.60;99.90;;;;;;5000357;28;20018;-84
2022/05/17 03:48:13;;;;;;;4.32;3.95;;;15.50;99.90;;;;;;5004219;28;20514;-84
2022/05/17 03:50:39;;;;;;;6.07;4.10;;;15.50;99.90;;;;;;4971327;28;20039;-84
2022/05/17 03:53:05;;;;;;;4.35;3.58;;;15.50;99.90;;;;;;4987795;28;20046;-84
2022/05/17 03:55:31;;;;;;;4.75;4.00;;;15.50;99.90;;;;;;4972183;28;20035;-83
2022/05/17 03:57:57;;;;;;;6.50;4.28;;;15.50;99.90;;;;;;4957946;28;20707;-84
2022/05/17 04:00:22;;;;;;;4.50;3.55;;;15.40;99.90;;;;;;4956707;28;20588;-84
2022/05/17 04:02:49;;;;;;;4.90;4.03;;;15.30;99.90;;;;;;4997373;28;20428;-83
2022/05/17 04:05:16;;;;;;;5.95;4.45;;;15.30;99.90;;;;;;4995079;28;20201;-84
2022/05/17 04:07:42;;;;;;;4.95;4.43;;;15.20;99.90;;;;;;4978380;28;20034;-83
2022/05/17 04:10:10;;;;;;;8.43;4.40;;;15.20;99.90;;;;;;4958175;28;20034;-84
2022/05/17 04:12:36;;;;;;;7.32;4.82;;;15.20;99.90;;;;;;4961153;28;20041;-83
2022/05/17 04:15:03;;;;;;;5.55;4.30;;;15.20;99.90;;;;;;4990144;28;20038;-83
2022/05/17 04:17:28;;;;;;;4.03;3.67;;;15.10;99.90;;;;;;4960871;28;20038;-83
2022/05/17 04:19:57;;;;;;;5.05;4.50;;;15.10;99.90;;;;;;4962083;28;20042;-83
2022/05/17 04:22:23;;;;;;;6.13;4.15;;;15.10;99.90;;;;;;4972234;28;20022;-84
2022/05/17 04:24:53;;;;;;;6.88;4.65;;;15.10;99.90;;;;;;4942185;28;20030;-84
2022/05/17 04:27:19;;;;;;;4.60;3.80;;;15.10;99.90;;;;;;4983087;28;20057;-83
2022/05/17 04:29:44;;;;;;;4.80;4.15;;;15.10;99.90;;;;;;4947415;28;20632;-84
2022/05/17 04:32:10;;;;;;;5.78;4.28;;;15.10;99.90;;;;;;4977467;28;20106;-83
2022/05/17 04:34:36;;;;;;;8.35;4.30;;;15.10;99.90;;;;;;4985702;28;20120;-84
2022/05/17 04:37:02;;;;;;;5.90;4.20;;;15.20;99.90;;;;;;4980122;28;20034;-83
2022/05/17 04:39:28;;;;;;;4.72;4.22;;;15.20;99.90;;;;;;4955452;28;20044;-83
2022/05/17 04:41:53;;;;;;;7.88;3.95;;;15.20;99.90;;;;;;4961144;28;20034;-84
2022/05/17 04:44:19;;;;;;;5.22;4.20;;;15.20;99.90;;;;;;4923174;28;20089;-84
2022/05/17 04:46:45;;;;;;;5.03;4.53;;;15.20;99.90;;;;;;4972611;28;20046;-83
2022/05/17 04:49:11;;;;;;;6.50;4.43;;;15.30;99.90;;;;;;4957233;28;20202;-84
2022/05/17 04:51:36;;;;;;;5.25;4.15;;;15.30;99.90;;;;;;4972518;28;20042;-83
2022/05/17 04:54:03;;;;;;;4.22;3.83;;;15.30;99.90;;;;;;4997968;28;20081;-83
2022/05/17 04:56:28;;;;;;;4.70;4.10;;;15.40;99.90;;;;;;4999697;28;20448;-83
2022/05/17 04:58:54;;;;;;;4.32;3.78;;;15.40;99.90;;;;;;4979988;28;20034;-84
2022/05/17 05:01:21;;;;;;;4.97;3.67;;;15.50;99.90;;;;;;4963310;28;20129;-83
2022/05/17 05:03:47;;;;;;;4.30;3.90;;;15.50;99.90;;;;;;4947047;28;20067;-84
2022/05/17 05:06:13;;;;;;;6.32;4.25;;;15.60;99.90;;;;;;4958877;28;20416;-83
2022/05/17 05:08:38;;;;;;;5.10;4.25;;;15.60;99.90;;;;;;4989403;28;20088;-83
2022/05/17 05:11:05;;;;;;;5.07;3.55;;;15.60;99.90;;;;;;4992500;28;20370;-82
2022/05/17 05:13:31;;;;;;;5.20;4.70;;;15.70;99.90;;;;;;4984315;28;20038;-83
2022/05/17 05:15:57;;;;;;;10.13;6.22;;;15.70;99.90;;;;;;4979467;28;20030;-83
2022/05/17 05:18:23;;;;;;;7.07;5.40;;;15.80;99.90;;;;;;4965893;28;20049;-83
2022/05/17 05:20:49;;;;;;;6.85;4.95;;;15.90;99.90;;;;;;4995205;28;20038;-83
2022/05/17 05:23:15;;;;;;;9.60;5.13;;;16.00;99.90;;;;;;4973142;28;20098;-83
2022/05/17 05:25:41;;;;;;;7.65;5.25;;;16.10;99.90;;;;;;4972446;28;20030;-84
2022/05/17 05:28:09;;;;;;;7.97;5.85;;;16.30;99.90;;;;;;4977756;28;20116;-83
2022/05/17 05:30:37;;;;;;;5.38;4.57;;;16.50;99.90;;;;;;4960742;28;20069;-83
2022/05/17 05:33:03;;;;;;;8.15;5.13;;;16.80;99.90;;;;;;4970114;28;20092;-83
2022/05/17 05:35:29;;;;;;;4.97;4.47;;;17.10;99.90;;;;;;4955973;28;20043;-83
2022/05/17 05:37:55;;;;;;;11.77;5.60;;;17.50;99.90;;;;;;4988447;28;20081;-84
2022/05/17 05:40:21;;;;;;;8.15;5.00;;;17.90;99.90;;;;;;4956692;28;20734;-83
2022/05/17 05:42:49;;;;;;;7.18;5.15;;;18.30;99.90;;;;;;4980541;28;20529;-84
2022/05/17 05:45:14;;;;;;;8.70;4.57;;;18.70;99.90;;;;;;4988722;28;20224;-84
2022/05/17 05:47:42;;;;;;;9.23;5.00;;;19.10;99.90;;;;;;4971371;28;20176;-84
2022/05/17 05:50:08;;;;;;;5.55;4.47;;;19.40;99.90;;;;;;4964866;28;20120;-83
2022/05/17 05:52:34;;;;;;;7.55;4.53;;;19.70;99.90;;;;;;5004495;28;20517;-83
2022/05/17 05:55:01;;;;;;;8.25;4.70;;;20.00;99.90;;;;;;4972778;28;20034;-85
2022/05/17 05:57:27;;;;;;;4.82;3.97;;;20.30;99.90;;;;;;4972952;28;20049;-83
2022/05/17 05:59:53;;;;;;;4.93;4.03;;;20.50;99.90;;;;;;4987056;28;20045;-84
2022/05/17 06:02:19;;;;;;;8.02;4.20;;;20.70;99.90;;;;;;4978475;28;20037;-84
2022/05/17 06:04:45;;;;;;;7.38;3.92;;;21.00;99.90;;;;;;4997617;28;20115;-83
2022/05/17 06:07:11;;;;;;;5.97;3.80;;;21.30;99.90;;;;;;4992389;28;20121;-83
2022/05/17 06:09:39;;;;;;;6.88;3.95;;;21.50;99.90;;;;;;4974965;28;20029;-83
2022/05/17 06:12:05;;;;;;;5.72;4.10;;;21.70;99.90;;;;;;4960906;28;20057;-83
2022/05/17 06:14:31;;;;;;;3.92;3.08;;;21.90;99.90;;;;;;4939385;28;20030;-85
2022/05/17 06:16:57;;;;;;;6.25;4.13;;;22.10;99.90;;;;;;4962983;28;20456;-85
2022/05/17 06:19:24;;;;;;;6.28;3.47;;;22.20;99.90;;;;;;4963372;28;20034;-82
2022/05/17 06:21:50;;;;;;;5.88;3.90;;;22.20;99.90;;;;;;4973164;28;20098;-85
2022/05/17 06:24:16;;;;;;;6.32;4.78;;;22.10;99.90;;;;;;4972817;28;20521;-84
2022/05/17 06:26:42;;;;;;;6.57;3.80;;;22.10;99.90;;;;;;4968293;28;20559;-83
2022/05/17 06:29:08;;;;;;;5.03;4.00;;;22.30;99.90;;;;;;4984126;28;20018;-82
2022/05/17 06:31:34;;;;;;;6.75;4.03;;;22.60;99.90;;;;;;4976967;28;20057;-84
2022/05/17 06:34:00;;;;;;;8.55;4.25;;;22.80;99.70;;;;;;4984450;28;20046;-83
2022/05/17 06:36:25;;;;;;;6.70;3.70;;;22.90;98.50;;;;;;4987164;28;20041;-85
2022/05/17 06:38:51;;;;;;;10.10;3.38;;;22.90;97.60;;;;;;4986599;28;20034;-82
2022/05/17 06:41:19;;;;;;;5.53;3.40;;;23.00;97.40;;;;;;4967532;28;20040;-83
2022/05/17 06:43:45;;;;;;;4.68;3.20;;;23.10;97.70;;;;;;4958364;28;20034;-83
2022/05/17 06:46:11;;;;;;;6.25;2.90;;;22.90;96.20;;;;;;4961793;28;20036;-82
2022/05/17 06:48:37;;;;;;;5.88;3.15;;;22.70;96.70;;;;;;4961294;28;20533;-83
2022/05/17 06:51:05;;;;;;;6.38;3.42;;;22.30;96.40;;;;;;4960183;28;20058;-84
2022/05/17 06:53:31;;;;;;;3.83;2.95;;;22.00;97.30;;;;;;4992166;28;20033;-86
2022/05/17 06:55:58;;;;;;;4.82;3.40;;;21.60;98.40;;;;;;4996078;28;20512;-83
2022/05/17 06:58:25;;;;;;;6.28;3.92;;;21.20;99.40;;;;;;4984404;28;20082;-83
2022/05/17 07:00:51;;;;;;;7.22;3.30;;;20.80;97.50;;;;;;4987515;28;20034;-84
2022/05/17 07:03:16;;;;;;;6.80;3.58;;;20.60;99.90;;;;;;4965690;28;20084;-83
2022/05/17 07:05:42;;;;;;;7.80;4.10;;;20.50;99.30;;;;;;4964180;28;20044;-83
2022/05/17 07:08:08;;;;;;;3.58;3.22;;;20.30;99.90;;;;;;5003932;28;20046;-83
2022/05/17 07:13:18;;;;;;;7.15;3.20;;;20.20;99.90;;;;;;4997611;28;20042;-84
2022/05/17 07:15:47;;;;;;;7.18;3.05;;;20.30;99.90;;;;;;4997849;28;20033;-83
2022/05/17 07:18:15;;;;;;;6.63;3.17;;;20.40;99.90;;;;;;5011015;28;20181;-84
2022/05/17 07:20:41;;;;;;;5.25;3.20;;;20.40;99.90;;;;;;4999064;28;20045;-84
2022/05/17 07:23:07;;;;;;;4.95;3.00;;;20.40;99.90;;;;;;5009210;28;20026;-83
2022/05/17 07:25:34;;;;;;;4.22;3.20;;;20.20;99.90;;;;;;4993021;28;20404;-83
2022/05/17 07:28:00;;;;;;;7.28;2.90;;;20.00;99.90;;;;;;4995443;28;20117;-81
2022/05/17 07:30:27;;;;;;;6.05;3.15;;;20.10;99.90;;;;;;4984165;28;20038;-83
2022/05/17 07:32:53;;;;;;;6.03;2.95;;;20.40;99.90;;;;;;4962904;28;20120;-83
2022/05/17 07:35:21;;;;;;;3.95;2.58;;;20.80;99.90;;;;;;4981645;28;20038;-85
2022/05/17 07:37:47;;;;;;;5.75;3.00;;;21.20;99.90;;;;;;4969970;28;20100;-84
2022/05/17 07:40:13;;;;;;;8.18;3.70;;;21.50;99.90;;;;;;4977123;28;20038;-84
2022/05/17 07:42:40;;;;;;;5.60;3.17;;;21.50;99.90;;;;;;4993879;28;20092;-82
2022/05/17 07:45:08;;;;;;;6.18;3.40;;;21.40;98.70;;;;;;4980924;28;20042;-84
2022/05/17 07:47:34;;;;;;;6.18;4.32;;;21.10;99.60;;;;;;4976702;28;20085;-83
2022/05/17 07:50:01;;;;;;;4.60;3.45;;;20.80;99.90;;;;;;4988909;28;20092;-84
2022/05/17 07:52:26;;;;;;;5.15;3.03;;;20.70;99.90;;;;;;5004890;28;20034;-84
2022/05/17 07:54:52;;;;;;;3.13;2.17;;;20.70;99.90;;;;;;4971285;28;20138;-84
2022/05/17 07:57:19;;;;;;;3.50;2.55;;;20.70;99.90;;;;;;4957137;28;20089;-84
2022/05/17 07:59:46;;;;;;;4.65;3.00;;;20.60;99.90;;;;;;4957580;28;20077;-84
2022/05/17 08:02:12;;;;;;;3.47;3.00;;;20.50;99.90;;;;;;4984837;28;20506;-83
2022/05/17 08:04:38;;;;;;;3.75;2.78;;;20.40;99.90;;;;;;4967933;28;20114;-84
2022/05/17 08:07:04;;;;;;;4.75;2.58;;;20.20;99.90;;;;;;4976472;28;20409;-84
2022/05/17 08:09:34;;;;;;;4.35;2.85;;;20.20;99.90;;;;;;4997182;28;20114;-85
2022/05/17 08:12:00;;;;;;;6.47;2.67;;;20.10;99.90;;;;;;4983484;28;20126;-85
2022/05/17 08:14:26;;;;;;;6.93;2.83;;;20.10;99.90;;;;;;4958182;28;20069;-84
2022/05/17 08:16:52;;;;;;;5.25;3.10;;;20.10;99.90;;;;;;4958605;28;20069;-85
2022/05/17 08:19:20;;;;;;;6.72;3.25;;;20.00;99.90;;;;;;4968891;28;20030;-84
2022/05/17 08:21:46;;;;;;;4.80;3.30;;;19.90;99.90;;;;;;4989242;28;20497;-84
2022/05/17 08:24:12;;;;;;;5.78;3.58;;;19.80;99.90;;;;;;4955665;28;20035;-84
2022/05/17 08:29:22;;;;;;;6.38;3.08;;;20.00;99.90;;;;;;4970977;28;20038;-83
2022/05/17 08:34:32;;;;;;;5.68;3.20;;;20.20;99.90;;;;;;4969933;28;20042;-83
2022/05/17 08:36:58;;;;;;;3.80;2.65;;;20.20;99.90;;;;;;4972599;28;20029;-84
2022/05/17 08:39:26;;;;;;;3.85;3.17;;;20.20;99.90;;;;;;4993282;28;20117;-83
2022/05/17 08:42:30;;;;;;;2.58;2.30;;;20.30;99.90;;;;;;4968690;28;20481;-83
2022/05/17 08:45:05;;;;;;;4.80;2.55;;;20.30;99.70;;;;;;4913332;29;20035;-85
2022/05/17 08:47:35;;;;;;;4.13;2.75;;;20.40;99.90;;;;;;4984672;28;20034;-84
2022/05/17 08:50:08;;;;;;;6.45;3.20;;;20.50;99.90;;;;;;4997223;28;20025;-84
2022/05/17 08:52:38;;;;;;;5.25;2.13;;;20.60;98.10;;;;;;4993962;28;20045;-85
2022/05/17 08:55:15;;;;;;;8.32;3.28;;;20.60;99.60;;;;;;4969582;28;20030;-83
2022/05/17 08:57:42;;;;;;;4.20;2.45;;;20.70;99.90;;;;;;4968413;28;20428;-83
2022/05/17 09:00:17;;;;;;;4.97;2.85;;;20.60;97.20;;;;;;4975946;28;20121;-84
2022/05/17 09:02:56;;;;;;;;;;;20.60;96.40;;;;;;4951083;28;20224;-84
2022/05/17 09:05:34;;;;;;;3.95;3.10;;;20.60;97.10;;;;;;4984555;28;19952;-84
2022/05/17 09:08:16;;;;;;;3.90;2.80;;;20.50;98.40;;;;;;4963429;28;20041;-82
2022/05/17 09:10:42;;;;;;;4.20;2.58;;;20.40;99.70;;;;;;4969095;28;20045;-87
2022/05/17 09:13:28;;;;;;;4.55;2.60;;;20.20;99.30;;;;;;4995195;28;20022;-84
2022/05/17 09:15:55;;;;;;;;;;;20.10;99.90;;;;;;4968889;28;20077;-84
2022/05/17 09:18:23;;;;;;;2.80;2.55;;;20.00;99.90;;;;;;4981820;28;19913;-83
2022/05/17 09:20:49;;;;;;;6.25;2.80;;;20.00;99.90;;;;;;4975225;28;20033;-86
2022/05/17 09:23:15;;;;;;;6.72;2.85;;;20.10;98.30;;;;;;4987350;28;20121;-85
2022/05/17 09:26:04;;;;;;;2.25;2.05;;;20.20;99.40;;;;;;4973325;28;20495;-85
2022/05/17 09:28:47;;;;;;;13.23;3.38;;;20.40;99.00;;;;;;4972127;28;20037;-85
2022/05/17 09:31:24;;;;;;;5.60;2.92;;;20.50;98.20;;;;;;4985409;28;20081;-87
2022/05/17 09:33:53;;;;;;;4.32;2.25;;;20.80;99.20;;;;;;4989837;28;20204;-88
2022/05/17 09:36:25;;;;;;;2.80;2.30;;;21.00;99.90;;;;;;4973245;28;20026;-83
2022/05/17 09:38:52;;;;;;;4.68;2.60;;;21.20;96.70;;;;;;4985913;28;20034;-84
2022/05/17 09:41:23;;;;;;;2.65;2.13;;;21.30;96.40;;;;;;4941353;28;20074;-85
2022/05/17 09:44:00;;;;;;;3.70;2.40;;;21.40;98.30;;;;;;4988610;28;20018;-87
2022/05/17 09:46:35;;;;;;;8.70;2.40;;;21.50;98.60;;;;;;4970314;28;20038;-86
2022/05/17 09:52:32;;;;;;;5.45;2.22;;;21.70;95.80;;;;;;4988296;28;20037;-86
2022/05/17 09:55:21;;;;;;;2.72;2.10;;;21.70;95.20;;;;;;4992104;28;20112;-85
2022/05/17 09:57:56;;;;;;;2.00;1.83;;;21.60;95.10;;;;;;4987310;28;20132;-84
2022/05/17 10:00:27;;;;;;;4.25;2.15;;;21.50;95.80;;;;;;4979241;28;20100;-85
2022/05/17 10:03:01;;;;;;;1.85;1.75;;;21.40;95.60;;;;;;4994518;28;20033;-85
2022/05/17 10:05:38;;;;;;;3.83;1.98;;;21.30;97.00;;;;;;4975976;28;20130;-86
2022/05/17 10:08:14;;;;;;;1.77;1.67;;;21.30;96.80;;;;;;4986063;28;20037;-85
2022/05/17 10:10:43;;;;;;;2.88;1.63;;;21.40;95.40;;;;;;4987591;28;20041;-86
2022/05/17 10:13:44;;;;;;;4.18;1.90;;;21.50;96.50;;;;;;5000049;28;20033;-84
2022/05/17 10:16:14;;;;;;;3.78;2.03;;;21.60;93.00;;;;;;4981299;28;20665;-84
2022/05/17 10:18:48;;;;;;;3.53;1.67;;;21.60;92.20;;;;;;4970682;28;20044;-84
2022/05/17 10:21:23;;;;;;;3.28;1.77;;;21.70;92.00;;;;;;5001652;28;20113;-84
2022/05/17 10:24:07;;;;;;;4.05;1.67;;;21.70;92.00;;;;;;5003322;28;20054;-87
2022/05/17 10:26:39;;;;;;;4.57;1.85;;;21.80;93.00;;;;;;4984298;28;20090;-87
2022/05/17 10:29:27;;;;;;;3.75;1.88;;;21.80;92.70;;;;;;4975525;28;20119;-86
2022/05/17 10:32:01;;;;;;;1.90;1.42;;;21.80;93.30;;;;;;4982486;28;20028;-87
2022/05/17 10:34:49;;;;;;;2.45;1.67;;;21.80;94.00;;;;;;4979757;28;20042;-86
2022/05/17 10:37:25;;;;;;;1.73;1.52;;;21.80;95.20;;;;;;4991109;28;20037;-88
2022/05/17 10:40:09;;;;;;;3.15;2.00;;;21.90;93.00;;;;;;4969113;28;20037;-85
2022/05/17 10:42:37;;;;;;;2.22;2.00;;;22.00;93.40;;;;;;5001411;28;20025;-83
2022/05/17 10:45:05;;;;;;;5.03;1.90;;;22.10;92.30;;;;;;4981379;28;20023;-86
2022/05/17 10:48:03;;;;;;;3.90;2.10;;;22.10;92.50;;;;;;4970686;28;20065;-85
2022/05/17 10:50:45;;;;;;;2.95;2.10;;;22.20;93.80;;;;;;4991694;28;20497;-87
2022/05/17 10:53:22;;;;;;;4.60;1.80;;;22.20;93.60;;;;;;4997797;28;20539;-86
2022/05/17 10:56:10;;;;;;;3.50;2.47;;;22.30;93.60;;;;;;4992718;28;20026;-87
2022/05/17 10:59:04;;;;;;;5.07;1.98;;;22.20;91.10;;;;;;5003630;28;20042;-86
2022/05/17 11:01:51;;;;;;;1.83;1.70;;;22.20;92.40;;;;;;4975479;28;20034;-86
2022/05/17 11:04:57;;;;;;;2.78;1.90;;;22.10;91.90;;;;;;4977792;28;20034;-85
2022/05/17 11:07:41;;;;;;;2.42;1.98;;;22.10;91.80;;;;;;4989837;28;20034;-87
2022/05/17 11:10:19;;;;;;;2.67;1.80;;;22.20;92.40;;;;;;4999625;28;20060;-84
2022/05/17 11:13:12;;;;;;;2.42;1.77;;;22.20;90.70;;;;;;5003602;28;20038;-85
2022/05/17 11:15:45;;;;;;;1.60;1.48;;;22.30;88.10;;;;;;4987886;28;20034;-87
2022/05/17 11:18:33;;;;;;;1.85;1.60;;;22.40;89.70;;;;;;4954210;28;20662;-86
2022/05/17 11:21:07;;;;;;;2.58;1.60;;;22.50;90.80;;;;;;4983436;28;20030;-87
2022/05/17 11:23:45;;;;;;;2.70;1.67;;;22.70;91.20;;;;;;5002369;28;20703;-85
2022/05/17 11:26:28;;;;;;;3.15;1.58;;;22.90;91.00;;;;;;4999762;28;20026;-87
2022/05/17 11:29:19;;;;;;;4.28;1.50;;;23.20;82.70;;;;;;4972682;28;20031;-86
2022/05/17 11:31:54;;;;;;;2.35;1.58;;;23.30;88.50;;;;;;4992467;28;20084;-85
2022/05/17 11:34:22;;;;;;;1.92;1.50;;;23.50;90.00;;;;;;4987959;28;20700;-85
2022/05/17 11:36:50;;;;;;;4.10;1.42;;;23.60;82.90;;;;;;4965552;28;20038;-84
2022/05/17 11:39:37;;;;;;;2.65;1.35;;;23.60;85.80;;;;;;4986199;28;20128;-85
2022/05/17 11:42:08;;;;;;;1.42;0.95;;;23.70;82.90;;;;;;4990370;28;20022;-84
2022/05/17 11:45:20;;;;;;;3.38;1.73;;;23.90;85.20;;;;;;4986256;28;20103;-86
2022/05/17 11:47:51;;;;;;;4.93;1.63;;;23.90;85.50;;;;;;4954392;28;20034;-87
2022/05/17 11:50:18;;;;;;;3.13;1.65;;;24.00;85.80;;;;;;4996298;28;20027;-89
2022/05/17 11:52:54;;;;;;;3.42;2.15;;;24.10;84.40;;;;;;4996539;28;20042;-84
2022/05/17 11:55:25;;;;;;;2.00;1.58;;;24.10;81.30;;;;;;4975639;28;20038;-87
2022/05/17 11:57:51;;;;;;;2.78;1.50;;;24.20;82.70;;;;;;4993437;28;20481;-84
2022/05/17 12:00:25;;;;;;;1.63;1.52;;;24.20;83.00;;;;;;5003823;28;20018;-85
2022/05/17 12:02:54;;;;;;;2.65;1.63;;;24.30;83.90;;;;;;5003012;28;20512;-90
2022/05/17 12:05:38;;;;;;;1.95;1.40;;;24.30;85.10;;;;;;4990947;28;20038;-88
2022/05/17 12:08:46;;;;;;;2.85;1.73;;;24.40;82.70;;;;;;4992201;28;20023;-86
2022/05/17 12:11:12;;;;;;;1.83;1.48;;;24.20;77.20;;;;;;4965528;28;20035;-85
2022/05/17 12:13:59;;;;;;;1.50;1.20;;;24.10;81.00;;;;;;4965540;28;20027;-84
2022/05/17 12:16:29;;;;;;;2.33;1.40;;;24.00;80.60;;;;;;4980780;28;20522;-85
2022/05/17 12:19:13;;;;;;;4.32;1.40;;;23.90;78.80;;;;;;4992465;28;20053;-84
2022/05/17 12:21:43;;;;;;;2.13;1.60;;;23.80;80.90;;;;;;4982746;28;20038;-84
2022/05/17 12:24:47;;;;;;;3.03;1.13;;;23.70;80.50;;;;;;4992195;28;20073;-83
2022/05/17 12:27:32;;;;;;;3.85;1.58;;;23.60;81.50;;;;;;4960085;28;20875;-84
2022/05/17 12:33:25;;;;;;;2.67;1.35;;;23.60;78.90;;;;;;4990018;28;20019;-84
2022/05/17 12:35:53;;;;;;;1.80;1.40;;;23.50;77.00;;;;;;4967576;28;20109;-83
2022/05/17 12:44:21;;;;;;;3.13;1.20;;;24.10;76.60;;;;;;4975455;28;20031;-83
2022/05/17 12:46:50;;;;;;;1.90;1.50;;;24.10;73.00;;;;;;4957037;28;20030;-85
2022/05/17 12:49:25;;;;;;;6.00;1.40;;;24.00;73.70;;;;;;4990018;28;20022;-83
2022/05/17 12:52:14;;;;;;;2.80;1.40;;;23.80;77.20;;;;;;4965118;28;20057;-84
2022/05/17 12:54:40;;;;;;;4.07;1.60;;;23.70;80.10;;;;;;4951266;28;20485;-83
2022/05/17 12:57:18;;;;;;;3.65;1.60;;;23.80;83.70;;;;;;4953375;28;20042;-84
2022/05/17 12:59:44;;;;;;;1.85;1.40;;;24.00;83.10;;;;;;4961691;28;20607;-83
2022/05/17 13:02:10;;;;;;;2.95;1.48;;;24.10;77.70;;;;;;4961753;28;20099;-83
2022/05/17 13:04:37;;;;;;;3.85;1.33;;;24.20;78.10;;;;;;4980319;28;20049;-83
2022/05/17 13:07:13;;;;;;;3.72;1.70;;;24.30;79.40;;;;;;4971875;28;20034;-84
2022/05/17 13:10:03;;;;;;;1.83;1.30;;;24.30;74.40;;;;;;4948258;28;20117;-85
2022/05/17 13:12:32;;;;;;;2.67;1.40;;;24.50;80.20;;;;;;4999820;28;20116;-85
2022/05/17 13:14:58;;;;;;;2.53;1.48;;;24.90;79.90;;;;;;4977680;28;20089;-84
2022/05/17 13:17:34;;;;;;;1.88;1.50;;;25.10;77.80;;;;;;4981471;28;20038;-83
2022/05/17 13:20:28;;;;;;;3.00;1.25;;;25.30;72.60;;;;;;4984225;28;20042;-85
2022/05/17 13:22:55;;;;;;;1.48;1.10;;;25.40;77.10;;;;;;4978340;28;20129;-84
2022/05/17 13:25:30;;;;;;;1.63;1.52;;;25.70;73.70;;;;;;4981543;28;20360;-83
2022/05/17 13:27:56;;;;;;;3.40;1.20;;;25.90;74.40;;;;;;4990708;28;20038;-84